createdAt,value
2022-09-12T00:00:43.001Z,99257.34
2022-09-12T00:01:48.197Z,99253.52
2022-09-12T00:02:56.383Z,99259.36
2022-09-12T00:04:02.824Z,99256.65
2022-09-12T00:05:09.771Z,99264.67
2022-09-12T00:06:22.824Z,99253.06
2022-09-12T00:07:25.131Z,99253.97
2022-09-12T00:08:28.322Z,99246.14
2022-09-12T00:09:31.621Z,99240.14
2022-09-12T00:10:38.152Z,99240.45
2022-09-12T00:11:43.223Z,99245.38
2022-09-12T00:12:46.427Z,99234.89
2022-09-12T00:13:49.825Z,99235.89
2022-09-12T00:14:54.483Z,99236.50
2022-09-12T00:15:57.695Z,99236.81
2022-09-12T00:17:00.442Z,99239.03
2022-09-12T00:18:04.044Z,99244.00
2022-09-12T00:19:10.695Z,99243.00
2022-09-12T00:20:14.128Z,99240.02
2022-09-12T00:21:19.561Z,99238.87
2022-09-12T00:22:25.494Z,99233.83
2022-09-12T00:23:29.126Z,99234.67
2022-09-12T00:24:34.157Z,99233.71
2022-09-12T00:25:40.381Z,99235.55
2022-09-12T00:26:43.580Z,99228.58
2022-09-12T00:27:46.242Z,99231.77
2022-09-12T00:28:51.327Z,99225.96
2022-09-12T00:29:54.828Z,99228.86
2022-09-12T00:30:58.272Z,99236.66
2022-09-12T00:32:02.542Z,99231.13
2022-09-12T00:33:05.752Z,99229.94
2022-09-12T00:34:10.625Z,99223.75
2022-09-12T00:35:13.910Z,99218.09
2022-09-12T00:36:18.575Z,99218.63
2022-09-12T00:37:23.542Z,99226.03
2022-09-12T00:38:26.944Z,99221.98
2022-09-12T00:39:31.378Z,99219.00
2022-09-12T00:40:35.415Z,99219.09
2022-09-12T00:41:40.383Z,99211.13
2022-09-12T00:42:43.785Z,99213.48
2022-09-12T00:43:50.414Z,99213.14
2022-09-12T00:44:54.520Z,99208.48
2022-09-12T00:46:01.665Z,99209.32
2022-09-12T00:47:06.785Z,99209.16
2022-09-12T00:48:11.996Z,99208.92
2022-09-12T00:49:17.342Z,99211.59
2022-09-12T00:50:19.691Z,99206.92
2022-09-12T00:51:24.042Z,99207.23
2022-09-12T00:52:31.832Z,99202.88
2022-09-12T00:53:35.056Z,99201.20
2022-09-12T00:54:40.122Z,99206.55
2022-09-12T00:55:45.479Z,99204.03
2022-09-12T00:56:51.584Z,99202.74
2022-09-12T00:58:01.467Z,99195.13
2022-09-12T00:59:06.531Z,99203.56
2022-09-12T01:00:15.006Z,99201.27
2022-09-12T01:01:18.990Z,99202.29
2022-09-12T01:02:23.038Z,99201.51
2022-09-12T01:03:25.716Z,99199.45
2022-09-12T01:04:28.667Z,99204.66
2022-09-12T01:05:33.944Z,99199.83
2022-09-12T01:06:40.163Z,99197.99
2022-09-12T01:07:46.318Z,99203.34
2022-09-12T01:08:51.352Z,99194.92
2022-09-12T01:09:55.170Z,99194.33
2022-09-12T01:10:58.362Z,99191.00
2022-09-12T01:12:02.914Z,99190.56
2022-09-12T01:13:08.020Z,99197.62
2022-09-12T01:14:11.593Z,99194.02
2022-09-12T01:15:14.876Z,99200.58
2022-09-12T01:16:19.124Z,99193.08
2022-09-12T01:17:27.256Z,99195.54
2022-09-12T01:18:50.146Z,99198.09
2022-09-12T01:20:01.398Z,99199.61
2022-09-12T01:21:08.656Z,99194.58
2022-09-12T01:22:16.316Z,99197.62
2022-09-12T01:23:39.261Z,99193.73
2022-09-12T01:24:54.921Z,99189.75
2022-09-12T01:26:03.828Z,99197.87
2022-09-12T01:27:21.896Z,99200.39
2022-09-12T01:28:48.746Z,99204.18
2022-09-12T01:30:13.137Z,99195.52
2022-09-12T01:31:18.463Z,99203.71
2022-09-12T01:32:22.704Z,99198.73
2022-09-12T01:33:29.932Z,99193.22
2022-09-12T01:34:51.817Z,99192.64
2022-09-12T01:35:58.561Z,99189.12
2022-09-12T01:37:03.842Z,99188.70
2022-09-12T01:38:12.597Z,99185.66
2022-09-12T01:39:18.729Z,99188.84
2022-09-12T01:40:30.007Z,99196.52
2022-09-12T01:41:39.273Z,99191.38
2022-09-12T01:42:46.737Z,99193.37
2022-09-12T01:43:54.630Z,99190.80
2022-09-12T01:45:01.489Z,99197.02
2022-09-12T01:46:10.411Z,99190.12
2022-09-12T01:47:16.944Z,99191.70
2022-09-12T01:48:22.341Z,99195.58
2022-09-12T01:49:47.027Z,99201.27
2022-09-12T01:50:53.154Z,99195.58
2022-09-12T01:52:03.250Z,99191.75
2022-09-12T01:53:23.889Z,99188.49
2022-09-12T01:54:31.754Z,99184.66
2022-09-12T01:55:37.058Z,99179.85
2022-09-12T01:56:41.608Z,99183.92
2022-09-12T01:57:51.066Z,99189.75
2022-09-12T01:58:59.051Z,99188.13
2022-09-12T02:00:05.056Z,99176.95
2022-09-12T02:01:12.577Z,99174.80
2022-09-12T02:02:17.831Z,99176.95
2022-09-12T02:03:25.081Z,99182.20
2022-09-12T02:04:34.930Z,99180.53
2022-09-12T02:05:43.280Z,99180.53
2022-09-12T02:06:47.933Z,99177.52
2022-09-12T02:07:56.546Z,99179.36
2022-09-12T02:09:01.941Z,99175.53
2022-09-12T02:10:07.848Z,99178.70
2022-09-12T02:11:11.762Z,99181.73
2022-09-12T02:12:16.319Z,99170.65
2022-09-12T02:13:21.601Z,99176.37
2022-09-12T02:14:41.284Z,99174.18
2022-09-12T02:15:45.938Z,99178.86
2022-09-12T02:16:53.005Z,99170.19
2022-09-12T02:17:58.835Z,99168.20
2022-09-12T02:19:06.595Z,99168.72
2022-09-12T02:20:26.003Z,99162.17
2022-09-12T02:21:21.963Z,99168.20
2022-09-12T02:22:27.346Z,99161.84
2022-09-12T02:23:32.627Z,99167.15
2022-09-12T02:24:38.639Z,99162.52
2022-09-12T02:25:43.919Z,99166.88
2022-09-12T02:27:00.793Z,99170.87
2022-09-12T02:28:05.443Z,99174.75
2022-09-12T02:29:08.847Z,99174.91
2022-09-12T02:30:14.548Z,99170.59
2022-09-12T02:31:19.609Z,99167.76
2022-09-12T02:32:39.095Z,99169.92
2022-09-12T02:33:51.538Z,99168.41
2022-09-12T02:35:07.941Z,99167.56
2022-09-12T02:36:21.791Z,99171.08
2022-09-12T02:37:34.903Z,99175.27
2022-09-12T02:38:41.333Z,99165.88
2022-09-12T02:39:45.457Z,99171.92
2022-09-12T02:40:51.268Z,99167.56
2022-09-12T02:41:55.653Z,99174.11
2022-09-12T02:42:58.203Z,99172.27
2022-09-12T02:44:01.979Z,99170.08
2022-09-12T02:45:07.887Z,99166.56
2022-09-12T02:46:13.491Z,99177.44
2022-09-12T02:47:19.909Z,99175.28
2022-09-12T02:48:30.204Z,99163.84
2022-09-12T02:49:33.724Z,99169.20
2022-09-12T02:50:37.433Z,99167.72
2022-09-12T02:51:41.356Z,99168.05
2022-09-12T02:52:44.754Z,99174.23
2022-09-12T02:53:48.470Z,99174.39
2022-09-12T02:54:52.528Z,99173.23
2022-09-12T02:55:55.051Z,99177.11
2022-09-12T02:56:58.776Z,99184.30
2022-09-12T02:58:02.699Z,99184.83
2022-09-12T02:59:09.026Z,99184.27
2022-09-12T03:00:14.327Z,99183.58
2022-09-12T03:01:38.875Z,99183.88
2022-09-12T03:02:44.293Z,99185.57
2022-09-12T03:03:52.603Z,99190.09
2022-09-12T03:05:03.941Z,99190.77
2022-09-12T03:07:23.474Z,99185.47
2022-09-12T03:08:34.254Z,99188.41
2022-09-12T03:09:45.002Z,99190.29
2022-09-12T03:10:52.698Z,99187.30
2022-09-12T03:12:03.722Z,99185.94
2022-09-12T03:13:12.349Z,99185.95
2022-09-12T03:14:27.856Z,99190.50
2022-09-12T03:15:49.497Z,99194.34
2022-09-12T03:17:10.906Z,99188.67
2022-09-12T03:18:17.884Z,99189.83
2022-09-12T03:19:22.026Z,99186.83
2022-09-12T03:20:27.155Z,99188.83
2022-09-12T03:21:43.465Z,99193.19
2022-09-12T03:22:52.762Z,99190.03
2022-09-12T03:24:06.196Z,99191.19
2022-09-12T03:25:23.277Z,99191.51
2022-09-12T03:26:28.659Z,99190.62
2022-09-12T03:27:33.104Z,99189.34
2022-09-12T03:28:36.393Z,99197.70
2022-09-12T03:29:40.848Z,99193.70
2022-09-12T03:30:48.702Z,99198.22
2022-09-12T03:31:56.611Z,99188.87
2022-09-12T03:33:00.035Z,99190.87
2022-09-12T03:34:02.796Z,99194.70
2022-09-12T03:35:06.847Z,99187.30
2022-09-12T03:36:19.833Z,99189.83
2022-09-12T03:37:23.339Z,99186.83
2022-09-12T03:38:26.706Z,99195.34
2022-09-12T03:39:29.635Z,99181.94
2022-09-12T03:40:35.835Z,99187.94
2022-09-12T03:41:39.112Z,99186.30
2022-09-12T03:42:43.588Z,99183.59
2022-09-12T03:43:46.989Z,99190.61
2022-09-12T03:44:49.230Z,99181.89
2022-09-12T03:45:52.819Z,99184.09
2022-09-12T03:46:56.358Z,99180.75
2022-09-12T03:48:00.173Z,99188.78
2022-09-12T03:49:03.458Z,99182.95
2022-09-12T03:50:11.183Z,99181.62
2022-09-12T03:51:14.333Z,99179.27
2022-09-12T03:52:18.057Z,99186.66
2022-09-12T03:53:21.667Z,99192.30
2022-09-12T03:54:27.995Z,99186.47
2022-09-12T03:55:31.800Z,99193.18
2022-09-12T03:56:36.790Z,99194.50
2022-09-12T03:57:41.849Z,99194.81
2022-09-12T03:58:46.299Z,99195.91
2022-09-12T03:59:50.740Z,99198.43
2022-09-12T04:00:57.071Z,99191.92
2022-09-12T04:02:01.321Z,99199.31
2022-09-12T04:03:04.805Z,99202.63
2022-09-12T04:04:11.201Z,99205.81
2022-09-12T04:05:17.353Z,99199.27
2022-09-12T04:06:22.736Z,99201.45
2022-09-12T04:07:28.017Z,99196.59
2022-09-12T04:08:34.471Z,99199.16
2022-09-12T04:09:38.780Z,99194.48
2022-09-12T04:10:42.810Z,99195.97
2022-09-12T04:11:46.214Z,99198.49
2022-09-12T04:12:49.719Z,99189.83
2022-09-12T04:13:53.118Z,99198.70
2022-09-12T04:14:56.901Z,99188.83
2022-09-12T04:16:00.550Z,99196.55
2022-09-12T04:17:07.080Z,99196.70
2022-09-12T04:18:11.410Z,99197.02
2022-09-12T04:19:14.977Z,99201.73
2022-09-12T04:20:19.674Z,99193.70
2022-09-12T04:21:22.262Z,99200.22
2022-09-12T04:22:26.098Z,99203.38
2022-09-12T04:23:28.416Z,99199.17
2022-09-12T04:24:31.579Z,99206.52
2022-09-12T04:25:35.225Z,99196.27
2022-09-12T04:26:40.505Z,99196.42
2022-09-12T04:27:44.267Z,99195.91
2022-09-12T04:28:47.393Z,99205.45
2022-09-12T04:29:51.125Z,99202.95
2022-09-12T04:30:54.671Z,99197.78
2022-09-12T04:31:59.597Z,99198.05
2022-09-12T04:33:08.127Z,99200.87
2022-09-12T04:34:11.620Z,99207.73
2022-09-12T04:35:14.185Z,99204.92
2022-09-12T04:36:18.089Z,99204.45
2022-09-12T04:37:21.196Z,99205.39
2022-09-12T04:38:24.387Z,99202.06
2022-09-12T04:39:27.567Z,99203.71
2022-09-12T04:40:32.066Z,99210.31
2022-09-12T04:41:36.361Z,99207.48
2022-09-12T04:42:39.754Z,99206.73
2022-09-12T04:43:43.677Z,99205.55
2022-09-12T04:44:49.066Z,99208.91
2022-09-12T04:45:53.556Z,99210.13
2022-09-12T04:46:58.951Z,99204.88
2022-09-12T04:48:02.616Z,99220.58
2022-09-12T04:49:07.167Z,99213.27
2022-09-12T04:50:10.878Z,99210.59
2022-09-12T04:51:15.315Z,99210.16
2022-09-12T04:52:18.719Z,99217.28
2022-09-12T04:53:21.280Z,99209.25
2022-09-12T04:54:24.546Z,99223.13
2022-09-12T04:55:28.091Z,99216.94
2022-09-12T04:56:32.043Z,99216.87
2022-09-12T04:57:36.912Z,99216.16
2022-09-12T04:58:47.127Z,99220.17
2022-09-12T04:59:50.874Z,99222.70
2022-09-12T05:00:54.158Z,99223.81
2022-09-12T05:01:58.003Z,99220.83
2022-09-12T05:03:01.294Z,99224.75
2022-09-12T05:04:05.008Z,99224.28
2022-09-12T05:05:08.958Z,99225.86
2022-09-12T05:06:14.551Z,99223.01
2022-09-12T05:07:16.871Z,99223.51
2022-09-12T05:08:21.837Z,99231.41
2022-09-12T05:09:24.095Z,99227.73
2022-09-12T05:10:28.848Z,99228.48
2022-09-12T05:12:02.106Z,99222.13
2022-09-12T05:12:39.817Z,99226.80
2022-09-12T05:13:43.446Z,99225.84
2022-09-12T05:14:47.995Z,99222.52
2022-09-12T05:15:57.443Z,99226.21
2022-09-12T05:17:02.228Z,99237.07
2022-09-12T05:18:09.821Z,99229.17
2022-09-12T05:19:12.460Z,99231.87
2022-09-12T05:20:16.697Z,99231.72
2022-09-12T05:21:20.609Z,99236.76
2022-09-12T05:22:25.083Z,99235.77
2022-09-12T05:23:29.586Z,99226.05
2022-09-12T05:24:33.537Z,99223.78
2022-09-12T05:25:36.891Z,99227.89
2022-09-12T05:26:39.819Z,99227.14
2022-09-12T05:27:45.466Z,99232.50
2022-09-12T05:28:49.541Z,99229.82
2022-09-12T05:29:52.944Z,99244.38
2022-09-12T05:31:02.734Z,99227.33
2022-09-12T05:32:06.138Z,99225.22
2022-09-12T05:33:09.359Z,99229.48
2022-09-12T05:34:13.330Z,99227.48
2022-09-12T05:35:16.512Z,99232.52
2022-09-12T05:36:25.562Z,99231.08
2022-09-12T05:37:30.418Z,99224.97
2022-09-12T05:38:38.778Z,99236.35
2022-09-12T05:39:42.174Z,99223.19
2022-09-12T05:40:46.298Z,99225.55
2022-09-12T05:41:49.774Z,99217.70
2022-09-12T05:42:53.174Z,99227.41
2022-09-12T05:43:57.794Z,99222.10
2022-09-12T05:45:00.907Z,99220.91
2022-09-12T05:46:07.638Z,99227.09
2022-09-12T05:47:12.416Z,99226.64
2022-09-12T05:48:16.133Z,99223.13
2022-09-12T05:49:20.082Z,99232.39
2022-09-12T05:50:23.870Z,99224.56
2022-09-12T05:51:28.827Z,99225.77
2022-09-12T05:52:34.259Z,99230.39
2022-09-12T05:53:39.597Z,99227.89
2022-09-12T05:54:43.104Z,99227.36
2022-09-12T05:55:45.772Z,99228.89
2022-09-12T05:56:49.914Z,99225.34
2022-09-12T05:57:54.722Z,99228.11
2022-09-12T05:58:59.638Z,99228.27
2022-09-12T06:00:04.801Z,99226.04
2022-09-12T06:01:14.612Z,99228.03
2022-09-12T06:02:18.640Z,99227.25
2022-09-12T06:03:22.112Z,99222.95
2022-09-12T06:04:26.032Z,99228.58
2022-09-12T06:05:32.153Z,99227.17
2022-09-12T06:06:41.760Z,99237.50
2022-09-12T06:07:49.089Z,99230.84
2022-09-12T06:08:52.594Z,99237.01
2022-09-12T06:09:55.996Z,99239.75
2022-09-12T06:11:02.240Z,99231.84
2022-09-12T06:12:07.068Z,99244.75
2022-09-12T06:13:10.364Z,99239.34
2022-09-12T06:14:15.646Z,99237.47
2022-09-12T06:15:20.935Z,99240.06
2022-09-12T06:16:26.920Z,99240.18
2022-09-12T06:17:30.351Z,99241.82
2022-09-12T06:18:32.902Z,99238.96
2022-09-12T06:19:36.419Z,99242.92
2022-09-12T06:20:40.543Z,99238.65
2022-09-12T06:21:43.313Z,99236.51
2022-09-12T06:22:46.715Z,99236.81
2022-09-12T06:23:50.323Z,99241.09
2022-09-12T06:24:56.046Z,99246.37
2022-09-12T06:25:58.715Z,99242.16
2022-09-12T06:27:03.146Z,99242.47
2022-09-12T06:28:06.327Z,99240.75
2022-09-12T06:29:11.619Z,99235.70
2022-09-12T06:30:15.438Z,99235.92
2022-09-12T06:31:20.520Z,99246.22
2022-09-12T06:32:25.057Z,99242.94
2022-09-12T06:33:28.562Z,99242.33
2022-09-12T06:34:32.486Z,99244.06
2022-09-12T06:35:39.112Z,99239.86
2022-09-12T06:36:44.403Z,99249.80
2022-09-12T06:37:47.701Z,99249.47
2022-09-12T06:38:56.328Z,99251.27
2022-09-12T06:40:02.152Z,99245.69
2022-09-12T06:41:07.097Z,99253.50
2022-09-12T06:42:10.592Z,99249.80
2022-09-12T06:43:14.551Z,99255.40
2022-09-12T06:44:20.647Z,99247.06
2022-09-12T06:45:24.143Z,99248.42
2022-09-12T06:46:31.561Z,99255.41
2022-09-12T06:47:34.911Z,99260.16
2022-09-12T06:48:41.920Z,99253.06
2022-09-12T06:49:43.801Z,99251.97
2022-09-12T06:50:57.543Z,99252.97
2022-09-12T06:52:01.490Z,99256.56
2022-09-12T06:53:03.915Z,99253.68
2022-09-12T06:54:07.210Z,99255.67
2022-09-12T06:55:17.523Z,99250.78
2022-09-12T06:56:20.397Z,99255.09
2022-09-12T06:57:25.447Z,99256.83
2022-09-12T06:58:29.798Z,99252.88
2022-09-12T06:59:33.308Z,99256.24
2022-09-12T07:00:36.534Z,99258.29
2022-09-12T07:01:42.208Z,99252.27
2022-09-12T07:02:45.498Z,99252.16
2022-09-12T07:03:49.941Z,99254.36
2022-09-12T07:04:54.168Z,99252.20
2022-09-12T07:05:57.579Z,99252.02
2022-09-12T07:07:02.785Z,99253.70
2022-09-12T07:08:07.007Z,99251.56
2022-09-12T07:09:14.882Z,99252.47
2022-09-12T07:10:22.182Z,99256.35
2022-09-12T07:11:24.075Z,99255.56
2022-09-12T07:12:28.848Z,99257.72
2022-09-12T07:13:32.026Z,99258.24
2022-09-12T07:14:37.515Z,99263.02
2022-09-12T07:15:44.310Z,99260.00
2022-09-12T07:16:51.056Z,99255.80
2022-09-12T07:17:55.028Z,99253.98
2022-09-12T07:18:59.785Z,99259.19
2022-09-12T07:20:03.185Z,99251.96
2022-09-12T07:21:08.582Z,99257.05
2022-09-12T07:22:11.694Z,99263.34
2022-09-12T07:23:14.013Z,99262.75
2022-09-12T07:24:19.828Z,99268.45
2022-09-12T07:25:22.987Z,99272.32
2022-09-12T07:26:28.708Z,99262.05
2022-09-12T07:27:32.118Z,99265.83
2022-09-12T07:28:34.924Z,99259.61
2022-09-12T07:29:38.256Z,99252.98
2022-09-12T07:30:41.702Z,99269.73
2022-09-12T07:31:49.104Z,99265.28
2022-09-12T07:32:54.647Z,99265.72
2022-09-12T07:33:58.370Z,99258.77
2022-09-12T07:35:02.941Z,99263.27
2022-09-12T07:36:15.824Z,99266.12
2022-09-12T07:37:19.424Z,99263.76
2022-09-12T07:38:23.043Z,99264.27
2022-09-12T07:39:26.587Z,99262.83
2022-09-12T07:40:32.656Z,99265.39
2022-09-12T07:41:38.978Z,99264.14
2022-09-12T07:42:45.213Z,99263.97
2022-09-12T07:43:49.514Z,99270.65
2022-09-12T07:44:54.639Z,99270.58
2022-09-12T07:45:57.246Z,99266.00
2022-09-12T07:47:01.118Z,99262.31
2022-09-12T07:48:05.440Z,99276.49
2022-09-12T07:49:08.575Z,99269.59
2022-09-12T07:50:14.012Z,99275.81
2022-09-12T07:51:18.983Z,99265.39
2022-09-12T07:52:22.394Z,99271.81
2022-09-12T07:53:25.830Z,99273.67
2022-09-12T07:54:28.978Z,99275.88
2022-09-12T07:55:33.530Z,99271.79
2022-09-12T07:56:39.212Z,99280.22
2022-09-12T07:57:41.486Z,99275.53
2022-09-12T07:58:45.409Z,99276.91
2022-09-12T07:59:53.061Z,99278.69
2022-09-12T08:00:58.819Z,99277.27
2022-09-12T08:02:03.057Z,99275.31
2022-09-12T08:03:08.087Z,99289.47
2022-09-12T08:04:11.707Z,99272.78
2022-09-12T08:05:14.168Z,99274.30
2022-09-12T08:06:23.024Z,99270.78
2022-09-12T08:07:26.505Z,99275.19
2022-09-12T08:08:29.697Z,99277.03
2022-09-12T08:09:33.514Z,99278.69
2022-09-12T08:10:40.520Z,99270.82
2022-09-12T08:11:45.852Z,99286.78
2022-09-12T08:12:49.136Z,99278.93
2022-09-12T08:13:55.223Z,99276.95
2022-09-12T08:14:57.618Z,99273.99
2022-09-12T08:16:02.117Z,99290.41
2022-09-12T08:17:05.152Z,99283.74
2022-09-12T08:18:08.029Z,99280.84
2022-09-12T08:19:12.788Z,99290.38
2022-09-12T08:20:17.646Z,99282.23
2022-09-12T08:21:22.304Z,99287.27
2022-09-12T08:22:27.415Z,99283.98
2022-09-12T08:23:32.865Z,99288.22
2022-09-12T08:24:36.257Z,99285.00
2022-09-12T08:25:39.447Z,99288.02
2022-09-12T08:26:45.573Z,99271.27
2022-09-12T08:27:48.802Z,99279.42
2022-09-12T08:28:53.423Z,99275.18
2022-09-12T08:29:57.864Z,99267.80
2022-09-12T08:31:03.354Z,99269.14
2022-09-12T08:32:06.858Z,99270.86
2022-09-12T08:33:11.507Z,99281.94
2022-09-12T08:34:16.822Z,99275.44
2022-09-12T08:35:20.077Z,99270.23
2022-09-12T08:36:25.995Z,99273.25
2022-09-12T08:37:32.479Z,99275.75
2022-09-12T08:38:37.563Z,99275.42
2022-09-12T08:39:40.834Z,99277.59
2022-09-12T08:40:46.619Z,99272.20
2022-09-12T08:41:51.151Z,99270.86
2022-09-12T08:43:03.117Z,99277.24
2022-09-12T08:44:10.192Z,99282.19
2022-09-12T08:45:30.920Z,99281.02
2022-09-12T08:46:43.174Z,99286.94
2022-09-12T08:47:47.519Z,99276.69
2022-09-12T08:48:51.123Z,99280.62
2022-09-12T08:49:55.951Z,99280.84
2022-09-12T08:51:00.547Z,99267.08
2022-09-12T08:52:07.340Z,99272.20
2022-09-12T08:53:18.627Z,99283.92
2022-09-12T08:54:23.271Z,99286.78
2022-09-12T08:55:32.856Z,99285.17
2022-09-12T08:56:39.901Z,99283.21
2022-09-12T08:57:43.732Z,99283.66
2022-09-12T08:58:50.279Z,99288.11
2022-09-12T08:59:55.001Z,99288.88
2022-09-12T09:01:16.141Z,99289.61
2022-09-12T09:02:21.392Z,99276.73
2022-09-12T09:03:29.659Z,99281.84
2022-09-12T09:04:35.038Z,99276.99
2022-09-12T09:05:40.283Z,99287.38
2022-09-12T09:07:04.819Z,99287.20
2022-09-12T09:08:09.490Z,99290.42
2022-09-12T09:09:31.846Z,99283.52
2022-09-12T09:10:36.318Z,99288.15
2022-09-12T09:11:48.293Z,99295.88
2022-09-12T09:12:54.609Z,99294.07
2022-09-12T09:14:24.747Z,99291.81
2022-09-12T09:15:51.340Z,99286.44
2022-09-12T09:16:56.835Z,99288.11
2022-09-12T09:18:04.412Z,99296.23
2022-09-12T09:19:09.696Z,99284.93
2022-09-12T09:20:32.093Z,99289.94
2022-09-12T09:21:39.895Z,99287.14
2022-09-12T09:22:59.177Z,99287.80
2022-09-12T09:24:09.016Z,99278.15
2022-09-12T09:25:14.739Z,99290.20
2022-09-12T09:26:28.170Z,99293.91
2022-09-12T09:27:40.899Z,99294.48
2022-09-12T09:28:50.987Z,99288.16
2022-09-12T09:29:58.635Z,99284.63
2022-09-12T09:31:02.534Z,99292.90
2022-09-12T09:32:07.829Z,99288.43
2022-09-12T09:33:12.871Z,99289.11
2022-09-12T09:34:21.406Z,99286.48
2022-09-12T09:35:36.783Z,99296.43
2022-09-12T09:36:48.944Z,99297.27
2022-09-12T09:39:13.231Z,99285.92
2022-09-12T09:40:24.705Z,99288.95
2022-09-12T09:41:39.789Z,99285.92
2022-09-12T09:43:01.583Z,99284.17
2022-09-12T09:45:12.771Z,99302.87
2022-09-12T09:46:20.282Z,99298.50
2022-09-12T09:47:23.855Z,99312.17
2022-09-12T09:48:31.851Z,99309.14
2022-09-12T09:49:36.703Z,99304.77
2022-09-12T09:50:40.016Z,99310.02
2022-09-12T09:51:43.503Z,99299.93
2022-09-12T09:52:47.950Z,99296.34
2022-09-12T09:54:00.734Z,99297.07
2022-09-12T09:55:05.207Z,99301.16
2022-09-12T09:56:12.783Z,99300.14
2022-09-12T09:57:34.878Z,99304.33
2022-09-12T09:58:38.584Z,99295.88
2022-09-12T09:59:42.924Z,99303.49
2022-09-12T10:00:47.276Z,99310.56
2022-09-12T10:01:53.485Z,99302.58
2022-09-12T10:03:13.187Z,99296.05
2022-09-12T10:04:21.907Z,99296.51
2022-09-12T10:05:27.150Z,99303.16
2022-09-12T10:06:33.148Z,99302.98
2022-09-12T10:07:35.455Z,99288.83
2022-09-12T10:08:39.172Z,99305.45
2022-09-12T10:09:41.418Z,99287.67
2022-09-12T10:10:54.740Z,99283.52
2022-09-12T10:11:58.256Z,99284.55
2022-09-12T10:13:09.692Z,99288.81
2022-09-12T10:14:26.129Z,99282.23
2022-09-12T10:15:29.414Z,99296.17
2022-09-12T10:16:34.975Z,99297.56
2022-09-12T10:17:43.887Z,99296.53
2022-09-12T10:18:47.694Z,99296.23
2022-09-12T10:20:10.568Z,99291.44
2022-09-12T10:20:58.003Z,99295.05
2022-09-12T10:22:04.114Z,99288.09
2022-09-12T10:23:18.833Z,99295.22
2022-09-12T10:24:24.752Z,99291.30
2022-09-12T10:25:29.824Z,99291.90
2022-09-12T10:26:39.143Z,99288.91
2022-09-12T10:27:41.859Z,99296.05
2022-09-12T10:28:51.031Z,99300.03
2022-09-12T10:29:56.169Z,99301.67
2022-09-12T10:31:00.437Z,99303.82
2022-09-12T10:32:04.744Z,99296.84
2022-09-12T10:33:10.651Z,99302.69
2022-09-12T10:34:17.699Z,99293.94
2022-09-12T10:35:32.284Z,99299.59
2022-09-12T10:36:37.244Z,99312.08
2022-09-12T10:37:41.297Z,99304.17
2022-09-12T10:38:47.175Z,99312.66
2022-09-12T10:39:53.222Z,99297.52
2022-09-12T10:41:00.011Z,99307.36
2022-09-12T10:42:05.002Z,99310.22
2022-09-12T10:43:18.336Z,99314.41
2022-09-12T10:44:28.954Z,99309.80
2022-09-12T10:45:33.805Z,99305.63
2022-09-12T10:46:41.487Z,99302.15
2022-09-12T10:47:45.202Z,99299.14
2022-09-12T10:48:50.327Z,99295.94
2022-09-12T10:49:53.611Z,99297.19
2022-09-12T10:50:59.819Z,99301.31
2022-09-12T10:52:04.015Z,99295.70
2022-09-12T10:53:15.986Z,99300.55
2022-09-12T10:54:20.224Z,99302.66
2022-09-12T10:55:24.562Z,99299.70
2022-09-12T10:56:37.016Z,99306.10
2022-09-12T10:57:42.186Z,99311.31
2022-09-12T10:59:04.539Z,99311.86
2022-09-12T11:00:17.852Z,99316.61
2022-09-12T11:01:32.536Z,99308.70
2022-09-12T11:02:43.421Z,99305.44
2022-09-12T11:04:04.829Z,99295.78
2022-09-12T11:05:27.342Z,99304.97
2022-09-12T11:06:33.460Z,99304.50
2022-09-12T11:07:47.622Z,99307.97
2022-09-12T11:09:05.223Z,99313.06
2022-09-12T11:10:31.958Z,99310.48
2022-09-12T11:11:37.927Z,99313.05
2022-09-12T11:12:43.160Z,99313.75
2022-09-12T11:14:00.500Z,99310.80
2022-09-12T11:15:17.714Z,99315.66
2022-09-12T11:16:24.785Z,99315.02
2022-09-12T11:17:33.670Z,99309.55
2022-09-12T11:18:45.466Z,99317.16
2022-09-12T11:20:00.005Z,99314.51
2022-09-12T11:21:18.345Z,99309.82
2022-09-12T11:22:23.631Z,99309.05
2022-09-12T11:23:34.554Z,99314.92
2022-09-12T11:24:49.233Z,99309.72
2022-09-12T11:26:06.211Z,99310.72
2022-09-12T11:27:17.341Z,99321.95
2022-09-12T11:28:22.656Z,99321.95
2022-09-12T11:29:43.236Z,99317.77
2022-09-12T11:30:52.048Z,99317.91
2022-09-12T11:32:01.849Z,99311.70
2022-09-12T11:33:10.274Z,99311.38
2022-09-12T11:34:18.298Z,99307.59
2022-09-12T11:35:27.720Z,99312.83
2022-09-12T11:36:40.775Z,99309.62
2022-09-12T11:37:48.763Z,99311.36
2022-09-12T11:38:59.960Z,99311.19
2022-09-12T11:40:05.907Z,99314.47
2022-09-12T11:41:11.367Z,99306.23
2022-09-12T11:42:21.813Z,99312.22
2022-09-12T11:43:40.935Z,99312.61
2022-09-12T11:44:46.718Z,99308.03
2022-09-12T11:45:51.836Z,99303.31
2022-09-12T11:46:58.229Z,99307.53
2022-09-12T11:48:03.823Z,99307.58
2022-09-12T11:49:08.995Z,99309.26
2022-09-12T11:50:24.992Z,99307.53
2022-09-12T11:51:31.793Z,99308.75
2022-09-12T11:52:40.528Z,99304.62
2022-09-12T11:53:45.623Z,99308.81
2022-09-12T11:55:09.660Z,99298.75
2022-09-12T11:56:18.373Z,99303.80
2022-09-12T11:57:24.419Z,99293.94
2022-09-12T11:58:33.376Z,99294.37
2022-09-12T11:59:38.629Z,99303.91
2022-09-12T12:00:44.942Z,99301.99
2022-09-12T12:01:49.131Z,99302.78
2022-09-12T12:03:09.244Z,99304.28
2022-09-12T12:04:13.946Z,99299.91
2022-09-12T12:05:33.023Z,99301.44
2022-09-12T12:06:38.408Z,99304.90
2022-09-12T12:07:45.785Z,99303.91
2022-09-12T12:08:51.476Z,99303.75
2022-09-12T12:09:58.741Z,99299.22
2022-09-12T12:11:06.324Z,99303.22
2022-09-12T12:12:11.484Z,99301.38
2022-09-12T12:13:21.891Z,99302.75
2022-09-12T12:14:27.487Z,99297.34
2022-09-12T12:15:31.275Z,99313.63
2022-09-12T12:16:35.663Z,99294.70
2022-09-12T12:17:38.907Z,99296.89
2022-09-12T12:18:43.251Z,99302.92
2022-09-12T12:19:47.729Z,99296.90
2022-09-12T12:20:51.682Z,99303.42
2022-09-12T12:21:55.990Z,99305.45
2022-09-12T12:23:01.900Z,99300.41
2022-09-12T12:24:09.600Z,99296.36
2022-09-12T12:25:19.526Z,99305.76
2022-09-12T12:26:28.606Z,99298.38
2022-09-12T12:27:49.237Z,99302.71
2022-09-12T12:28:53.684Z,99311.44
2022-09-12T12:29:57.947Z,99311.30
2022-09-12T12:31:02.363Z,99298.91
2022-09-12T12:32:08.760Z,99307.77
2022-09-12T12:33:13.310Z,99302.78
2022-09-12T12:34:23.954Z,99310.31
2022-09-12T12:35:37.922Z,99310.14
2022-09-12T12:36:42.443Z,99303.92
2022-09-12T12:37:48.462Z,99311.77
2022-09-12T12:38:52.905Z,99315.67
2022-09-12T12:40:02.939Z,99313.83
2022-09-12T12:41:08.587Z,99311.30
2022-09-12T12:42:17.064Z,99312.13
2022-09-12T12:43:32.326Z,99308.10
2022-09-12T12:44:48.765Z,99312.13
2022-09-12T12:45:53.898Z,99308.45
2022-09-12T12:47:11.649Z,99313.32
2022-09-12T12:48:15.769Z,99313.45
2022-09-12T12:49:23.776Z,99314.31
2022-09-12T12:50:30.092Z,99310.94
2022-09-12T12:51:41.339Z,99304.39
2022-09-12T12:52:52.467Z,99311.94
2022-09-12T12:53:57.735Z,99312.78
2022-09-12T12:55:03.331Z,99310.94
2022-09-12T12:56:06.685Z,99312.78
2022-09-12T12:57:30.508Z,99318.48
2022-09-12T12:58:38.088Z,99310.44
2022-09-12T12:59:52.599Z,99315.30
2022-09-12T13:01:18.539Z,99311.06
2022-09-12T13:02:31.053Z,99314.41
2022-09-12T13:03:38.202Z,99314.03
2022-09-12T13:04:43.439Z,99316.03
2022-09-12T13:05:51.437Z,99318.78
2022-09-12T13:06:59.025Z,99324.83
2022-09-12T13:08:04.189Z,99316.05